sensor_id;sensor_type;location;lat;lon;timestamp;P1;durP1;ratioP1;P2;durP2;ratioP2
67352;SDS011;54238;52.278;21.056;2024-01-06T00:01:27;14.70;;;7.90;;
67352;SDS011;54238;52.278;21.056;2024-01-06T00:03:54;16.60;;;8.60;;
67352;SDS011;54238;52.278;21.056;2024-01-06T00:06:26;15.30;;;8.80;;
67352;SDS011;54238;52.278;21.056;2024-01-06T00:11:31;14.90;;;7.90;;
67352;SDS011;54238;52.278;21.056;2024-01-06T00:14:01;16.30;;;8.80;;
67352;SDS011;54238;52.278;21.056;2024-01-06T00:16:31;20.70;;;10.00;;
67352;SDS011;54238;52.278;21.056;2024-01-06T00:19:03;19.00;;;9.90;;
67352;SDS011;54238;52.278;21.056;2024-01-06T00:21:30;22.40;;;10.20;;
67352;SDS011;54238;52.278;21.056;2024-01-06T00:24:02;17.80;;;9.30;;
67352;SDS011;54238;52.278;21.056;2024-01-06T00:26:31;14.80;;;8.70;;
67352;SDS011;54238;52.278;21.056;2024-01-06T00:28:58;13.90;;;7.40;;
67352;SDS011;54238;52.278;21.056;2024-01-06T00:31:28;13.30;;;8.00;;
67352;SDS011;54238;52.278;21.056;2024-01-06T00:33:59;16.70;;;8.60;;
67352;SDS011;54238;52.278;21.056;2024-01-06T00:36:37;18.40;;;9.10;;
67352;SDS011;54238;52.278;21.056;2024-01-06T00:39:14;16.80;;;8.00;;
67352;SDS011;54238;52.278;21.056;2024-01-06T00:41:44;13.70;;;8.00;;
67352;SDS011;54238;52.278;21.056;2024-01-06T00:44:10;14.40;;;7.30;;
67352;SDS011;54238;52.278;21.056;2024-01-06T00:46:39;15.70;;;8.60;;
67352;SDS011;54238;52.278;21.056;2024-01-06T00:49:09;12.00;;;6.90;;
67352;SDS011;54238;52.278;21.056;2024-01-06T00:51:39;15.30;;;8.50;;
67352;SDS011;54238;52.278;21.056;2024-01-06T00:54:10;15.30;;;8.20;;
67352;SDS011;54238;52.278;21.056;2024-01-06T00:56:38;17.50;;;10.10;;
67352;SDS011;54238;52.278;21.056;2024-01-06T00:59:09;15.00;;;8.00;;
67352;SDS011;54238;52.278;21.056;2024-01-06T01:01:36;12.90;;;7.30;;
67352;SDS011;54238;52.278;21.056;2024-01-06T01:04:06;14.40;;;7.30;;
67352;SDS011;54238;52.278;21.056;2024-01-06T01:06:33;12.30;;;6.80;;
67352;SDS011;54238;52.278;21.056;2024-01-06T01:09:02;14.40;;;7.40;;
67352;SDS011;54238;52.278;21.056;2024-01-06T01:11:32;13.90;;;6.40;;
67352;SDS011;54238;52.278;21.056;2024-01-06T01:13:59;12.50;;;7.00;;
67352;SDS011;54238;52.278;21.056;2024-01-06T01:16:26;15.60;;;9.00;;
67352;SDS011;54238;52.278;21.056;2024-01-06T01:18:53;10.90;;;6.20;;
67352;SDS011;54238;52.278;21.056;2024-01-06T01:21:20;11.30;;;6.50;;
67352;SDS011;54238;52.278;21.056;2024-01-06T01:23:48;14.70;;;7.20;;
67352;SDS011;54238;52.278;21.056;2024-01-06T01:26:22;12.10;;;6.80;;
67352;SDS011;54238;52.278;21.056;2024-01-06T01:28:52;15.00;;;7.70;;
67352;SDS011;54238;52.278;21.056;2024-01-06T01:31:19;11.00;;;6.10;;
67352;SDS011;54238;52.278;21.056;2024-01-06T01:33:46;14.40;;;7.50;;
67352;SDS011;54238;52.278;21.056;2024-01-06T01:36:14;19.20;;;7.10;;
67352;SDS011;54238;52.278;21.056;2024-01-06T01:38:50;12.70;;;7.50;;
67352;SDS011;54238;52.278;21.056;2024-01-06T01:41:19;10.60;;;5.60;;
67352;SDS011;54238;52.278;21.056;2024-01-06T01:43:49;10.90;;;6.40;;
67352;SDS011;54238;52.278;21.056;2024-01-06T01:46:16;11.10;;;6.40;;
67352;SDS011;54238;52.278;21.056;2024-01-06T01:48:45;14.30;;;7.20;;
67352;SDS011;54238;52.278;21.056;2024-01-06T01:51:15;15.40;;;8.10;;
67352;SDS011;54238;52.278;21.056;2024-01-06T01:53:46;13.50;;;8.10;;
67352;SDS011;54238;52.278;21.056;2024-01-06T01:56:16;17.70;;;8.10;;
67352;SDS011;54238;52.278;21.056;2024-01-06T01:58:44;10.60;;;6.20;;
67352;SDS011;54238;52.278;21.056;2024-01-06T02:01:11;11.00;;;6.00;;
67352;SDS011;54238;52.278;21.056;2024-01-06T02:03:44;8.50;;;6.10;;
67352;SDS011;54238;52.278;21.056;2024-01-06T02:06:11;11.90;;;5.50;;
67352;SDS011;54238;52.278;21.056;2024-01-06T02:08:41;14.50;;;6.10;;
67352;SDS011;54238;52.278;21.056;2024-01-06T02:13:40;7.10;;;4.80;;
67352;SDS011;54238;52.278;21.056;2024-01-06T02:16:10;7.10;;;4.80;;
67352;SDS011;54238;52.278;21.056;2024-01-06T02:18:43;9.60;;;4.80;;
67352;SDS011;54238;52.278;21.056;2024-01-06T02:21:13;9.00;;;5.30;;
67352;SDS011;54238;52.278;21.056;2024-01-06T02:23:43;9.60;;;5.40;;
67352;SDS011;54238;52.278;21.056;2024-01-06T02:26:11;10.70;;;6.70;;
67352;SDS011;54238;52.278;21.056;2024-01-06T02:28:38;7.70;;;4.60;;
67352;SDS011;54238;52.278;21.056;2024-01-06T02:31:09;9.90;;;5.30;;
67352;SDS011;54238;52.278;21.056;2024-01-06T02:33:41;8.20;;;5.00;;
67352;SDS011;54238;52.278;21.056;2024-01-06T02:36:11;11.40;;;6.80;;
67352;SDS011;54238;52.278;21.056;2024-01-06T02:38:43;12.70;;;6.60;;
67352;SDS011;54238;52.278;21.056;2024-01-06T02:41:12;14.30;;;7.20;;
67352;SDS011;54238;52.278;21.056;2024-01-06T02:43:39;11.60;;;6.40;;
67352;SDS011;54238;52.278;21.056;2024-01-06T02:46:09;10.60;;;5.80;;
67352;SDS011;54238;52.278;21.056;2024-01-06T02:48:41;13.00;;;7.40;;
67352;SDS011;54238;52.278;21.056;2024-01-06T02:51:10;16.20;;;7.60;;
67352;SDS011;54238;52.278;21.056;2024-01-06T02:53:41;13.70;;;7.60;;
67352;SDS011;54238;52.278;21.056;2024-01-06T02:56:14;14.80;;;7.30;;
67352;SDS011;54238;52.278;21.056;2024-01-06T02:58:47;14.70;;;6.90;;
67352;SDS011;54238;52.278;21.056;2024-01-06T03:01:18;13.10;;;7.80;;
67352;SDS011;54238;52.278;21.056;2024-01-06T03:03:48;13.60;;;6.60;;
67352;SDS011;54238;52.278;21.056;2024-01-06T03:06:17;15.90;;;8.00;;
67352;SDS011;54238;52.278;21.056;2024-01-06T03:08:47;14.30;;;7.70;;
67352;SDS011;54238;52.278;21.056;2024-01-06T03:11:17;16.10;;;8.30;;
67352;SDS011;54238;52.278;21.056;2024-01-06T03:13:46;13.60;;;7.90;;
67352;SDS011;54238;52.278;21.056;2024-01-06T03:16:15;13.10;;;7.60;;
67352;SDS011;54238;52.278;21.056;2024-01-06T03:18:45;13.80;;;7.40;;
67352;SDS011;54238;52.278;21.056;2024-01-06T03:21:20;14.90;;;8.30;;
67352;SDS011;54238;52.278;21.056;2024-01-06T03:23:49;11.70;;;7.90;;
67352;SDS011;54238;52.278;21.056;2024-01-06T03:26:17;12.20;;;7.20;;
67352;SDS011;54238;52.278;21.056;2024-01-06T03:28:48;11.80;;;6.50;;
67352;SDS011;54238;52.278;21.056;2024-01-06T03:31:18;14.00;;;7.30;;
67352;SDS011;54238;52.278;21.056;2024-01-06T03:33:51;12.30;;;7.50;;
67352;SDS011;54238;52.278;21.056;2024-01-06T03:36:23;12.80;;;8.60;;
67352;SDS011;54238;52.278;21.056;2024-01-06T03:38:54;14.70;;;8.00;;
67352;SDS011;54238;52.278;21.056;2024-01-06T03:41:22;12.30;;;7.90;;
67352;SDS011;54238;52.278;21.056;2024-01-06T03:43:49;16.20;;;8.70;;
67352;SDS011;54238;52.278;21.056;2024-01-06T03:46:22;13.20;;;8.70;;
67352;SDS011;54238;52.278;21.056;2024-01-06T03:48:54;15.40;;;9.30;;
67352;SDS011;54238;52.278;21.056;2024-01-06T03:51:24;10.80;;;7.30;;
67352;SDS011;54238;52.278;21.056;2024-01-06T03:53:56;13.20;;;7.70;;
67352;SDS011;54238;52.278;21.056;2024-01-06T03:56:28;13.60;;;8.00;;
67352;SDS011;54238;52.278;21.056;2024-01-06T03:59:00;14.50;;;7.90;;
67352;SDS011;54238;52.278;21.056;2024-01-06T04:01:27;15.80;;;8.90;;
67352;SDS011;54238;52.278;21.056;2024-01-06T04:03:55;13.10;;;8.20;;
67352;SDS011;54238;52.278;21.056;2024-01-06T04:06:25;13.60;;;8.50;;
67352;SDS011;54238;52.278;21.056;2024-01-06T04:08:55;14.40;;;8.50;;
67352;SDS011;54238;52.278;21.056;2024-01-06T04:11:22;13.50;;;8.20;;
67352;SDS011;54238;52.278;21.056;2024-01-06T04:14:11;16.20;;;9.20;;
67352;SDS011;54238;52.278;21.056;2024-01-06T04:17:00;15.50;;;9.00;;
67352;SDS011;54238;52.278;21.056;2024-01-06T04:19:47;15.90;;;8.60;;
67352;SDS011;54238;52.278;21.056;2024-01-06T04:22:36;17.90;;;9.30;;
67352;SDS011;54238;52.278;21.056;2024-01-06T04:25:12;16.90;;;9.00;;
67352;SDS011;54238;52.278;21.056;2024-01-06T04:27:59;20.80;;;9.60;;
67352;SDS011;54238;52.278;21.056;2024-01-06T04:30:46;16.10;;;9.10;;
67352;SDS011;54238;52.278;21.056;2024-01-06T04:33:35;15.80;;;8.90;;
67352;SDS011;54238;52.278;21.056;2024-01-06T04:36:24;12.90;;;7.80;;
67352;SDS011;54238;52.278;21.056;2024-01-06T04:38:54;17.70;;;9.50;;
67352;SDS011;54238;52.278;21.056;2024-01-06T04:41:36;14.60;;;7.10;;
67352;SDS011;54238;52.278;21.056;2024-01-06T04:44:09;10.40;;;5.60;;
67352;SDS011;54238;52.278;21.056;2024-01-06T04:46:42;13.00;;;7.40;;
67352;SDS011;54238;52.278;21.056;2024-01-06T04:49:10;13.30;;;8.20;;
67352;SDS011;54238;52.278;21.056;2024-01-06T04:51:42;12.90;;;7.50;;
67352;SDS011;54238;52.278;21.056;2024-01-06T04:54:12;14.30;;;6.50;;
67352;SDS011;54238;52.278;21.056;2024-01-06T04:56:43;13.00;;;7.50;;
67352;SDS011;54238;52.278;21.056;2024-01-06T04:59:11;14.70;;;7.90;;
67352;SDS011;54238;52.278;21.056;2024-01-06T05:01:38;8.80;;;6.10;;
67352;SDS011;54238;52.278;21.056;2024-01-06T05:04:06;12.10;;;8.00;;
67352;SDS011;54238;52.278;21.056;2024-01-06T05:06:34;15.00;;;7.60;;
67352;SDS011;54238;52.278;21.056;2024-01-06T05:09:04;13.30;;;7.00;;
67352;SDS011;54238;52.278;21.056;2024-01-06T05:11:34;11.70;;;6.90;;
67352;SDS011;54238;52.278;21.056;2024-01-06T05:14:01;15.30;;;7.60;;
67352;SDS011;54238;52.278;21.056;2024-01-06T05:16:29;11.40;;;7.10;;
67352;SDS011;54238;52.278;21.056;2024-01-06T05:19:01;15.10;;;8.80;;
67352;SDS011;54238;52.278;21.056;2024-01-06T05:21:31;18.90;;;8.30;;
67352;SDS011;54238;52.278;21.056;2024-01-06T05:24:01;16.70;;;9.60;;
67352;SDS011;54238;52.278;21.056;2024-01-06T05:26:35;16.40;;;8.50;;
67352;SDS011;54238;52.278;21.056;2024-01-06T05:29:11;12.10;;;7.80;;
67352;SDS011;54238;52.278;21.056;2024-01-06T05:31:39;19.70;;;10.20;;
67352;SDS011;54238;52.278;21.056;2024-01-06T05:34:13;17.50;;;8.80;;
67352;SDS011;54238;52.278;21.056;2024-01-06T05:36:43;16.20;;;8.20;;
67352;SDS011;54238;52.278;21.056;2024-01-06T05:39:12;15.20;;;9.40;;
67352;SDS011;54238;52.278;21.056;2024-01-06T05:41:40;22.90;;;10.10;;
67352;SDS011;54238;52.278;21.056;2024-01-06T05:44:10;18.70;;;10.70;;
67352;SDS011;54238;52.278;21.056;2024-01-06T05:46:38;21.00;;;11.30;;
67352;SDS011;54238;52.278;21.056;2024-01-06T05:49:10;16.50;;;10.10;;
67352;SDS011;54238;52.278;21.056;2024-01-06T05:51:43;23.70;;;11.30;;
67352;SDS011;54238;52.278;21.056;2024-01-06T05:54:15;19.30;;;9.80;;
67352;SDS011;54238;52.278;21.056;2024-01-06T05:56:42;22.60;;;12.90;;
67352;SDS011;54238;52.278;21.056;2024-01-06T05:59:12;23.30;;;11.80;;
67352;SDS011;54238;52.278;21.056;2024-01-06T06:01:45;20.70;;;10.40;;
67352;SDS011;54238;52.278;21.056;2024-01-06T06:04:14;19.70;;;10.00;;
67352;SDS011;54238;52.278;21.056;2024-01-06T06:06:43;18.70;;;9.90;;
67352;SDS011;54238;52.278;21.056;2024-01-06T06:09:13;22.70;;;11.00;;
67352;SDS011;54238;52.278;21.056;2024-01-06T06:11:43;14.80;;;9.00;;
67352;SDS011;54238;52.278;21.056;2024-01-06T06:14:15;22.90;;;13.00;;
67352;SDS011;54238;52.278;21.056;2024-01-06T06:16:43;21.50;;;10.10;;
67352;SDS011;54238;52.278;21.056;2024-01-06T06:19:10;21.40;;;10.50;;
67352;SDS011;54238;52.278;21.056;2024-01-06T06:21:38;17.10;;;10.10;;
67352;SDS011;54238;52.278;21.056;2024-01-06T06:24:13;15.70;;;9.50;;
67352;SDS011;54238;52.278;21.056;2024-01-06T06:26:43;20.00;;;11.10;;
67352;SDS011;54238;52.278;21.056;2024-01-06T06:29:12;18.40;;;9.90;;
67352;SDS011;54238;52.278;21.056;2024-01-06T06:31:44;19.10;;;10.50;;
67352;SDS011;54238;52.278;21.056;2024-01-06T06:34:17;16.10;;;9.50;;
67352;SDS011;54238;52.278;21.056;2024-01-06T06:36:44;21.00;;;12.10;;
67352;SDS011;54238;52.278;21.056;2024-01-06T06:39:19;15.20;;;8.70;;
67352;SDS011;54238;52.278;21.056;2024-01-06T06:41:46;17.90;;;9.20;;
67352;SDS011;54238;52.278;21.056;2024-01-06T06:44:14;18.10;;;8.80;;
67352;SDS011;54238;52.278;21.056;2024-01-06T06:46:44;18.80;;;11.50;;
67352;SDS011;54238;52.278;21.056;2024-01-06T06:49:11;18.50;;;10.30;;
67352;SDS011;54238;52.278;21.056;2024-01-06T06:51:43;19.80;;;11.00;;
67352;SDS011;54238;52.278;21.056;2024-01-06T06:54:15;19.20;;;10.10;;
67352;SDS011;54238;52.278;21.056;2024-01-06T06:56:47;18.50;;;10.50;;
67352;SDS011;54238;52.278;21.056;2024-01-06T06:59:18;18.50;;;10.30;;
67352;SDS011;54238;52.278;21.056;2024-01-06T07:01:48;15.30;;;8.10;;
67352;SDS011;54238;52.278;21.056;2024-01-06T07:04:18;20.10;;;10.60;;
67352;SDS011;54238;52.278;21.056;2024-01-06T07:06:52;17.40;;;9.50;;
67352;SDS011;54238;52.278;21.056;2024-01-06T07:09:19;18.90;;;10.70;;
67352;SDS011;54238;52.278;21.056;2024-01-06T07:11:50;20.30;;;10.60;;
67352;SDS011;54238;52.278;21.056;2024-01-06T07:14:19;15.90;;;9.10;;
67352;SDS011;54238;52.278;21.056;2024-01-06T07:16:51;16.10;;;9.90;;
67352;SDS011;54238;52.278;21.056;2024-01-06T07:19:21;17.20;;;10.40;;
67352;SDS011;54238;52.278;21.056;2024-01-06T07:21:48;17.70;;;11.00;;
67352;SDS011;54238;52.278;21.056;2024-01-06T07:24:16;18.00;;;11.20;;
67352;SDS011;54238;52.278;21.056;2024-01-06T07:26:45;18.70;;;10.00;;
67352;SDS011;54238;52.278;21.056;2024-01-06T07:29:18;19.20;;;9.60;;
67352;SDS011;54238;52.278;21.056;2024-01-06T07:31:48;21.40;;;10.50;;
67352;SDS011;54238;52.278;21.056;2024-01-06T07:34:18;13.70;;;8.90;;
67352;SDS011;54238;52.278;21.056;2024-01-06T07:36:48;18.10;;;10.40;;
67352;SDS011;54238;52.278;21.056;2024-01-06T07:39:18;22.70;;;12.10;;
67352;SDS011;54238;52.278;21.056;2024-01-06T07:41:53;24.10;;;12.90;;
67352;SDS011;54238;52.278;21.056;2024-01-06T07:44:25;26.70;;;12.00;;
67352;SDS011;54238;52.278;21.056;2024-01-06T07:46:57;21.10;;;11.60;;
67352;SDS011;54238;52.278;21.056;2024-01-06T07:49:27;18.00;;;9.60;;
67352;SDS011;54238;52.278;21.056;2024-01-06T07:51:56;20.00;;;10.20;;
67352;SDS011;54238;52.278;21.056;2024-01-06T07:54:28;18.40;;;10.80;;
67352;SDS011;54238;52.278;21.056;2024-01-06T07:56:58;19.60;;;10.30;;
67352;SDS011;54238;52.278;21.056;2024-01-06T07:59:26;16.40;;;9.80;;
67352;SDS011;54238;52.278;21.056;2024-01-06T08:01:56;18.70;;;11.30;;
67352;SDS011;54238;52.278;21.056;2024-01-06T08:04:25;18.90;;;10.40;;
67352;SDS011;54238;52.278;21.056;2024-01-06T08:06:55;19.10;;;11.20;;
67352;SDS011;54238;52.278;21.056;2024-01-06T08:09:25;15.60;;;9.30;;
67352;SDS011;54238;52.278;21.056;2024-01-06T08:11:52;16.20;;;9.30;;
67352;SDS011;54238;52.278;21.056;2024-01-06T08:14:26;26.20;;;11.00;;
67352;SDS011;54238;52.278;21.056;2024-01-06T08:16:53;13.00;;;8.10;;
67352;SDS011;54238;52.278;21.056;2024-01-06T08:19:23;18.70;;;11.20;;
67352;SDS011;54238;52.278;21.056;2024-01-06T08:21:55;16.30;;;9.00;;
67352;SDS011;54238;52.278;21.056;2024-01-06T08:24:22;14.20;;;8.90;;
67352;SDS011;54238;52.278;21.056;2024-01-06T08:26:54;16.50;;;10.40;;
67352;SDS011;54238;52.278;21.056;2024-01-06T08:29:21;17.20;;;9.80;;
67352;SDS011;54238;52.278;21.056;2024-01-06T08:31:53;12.90;;;7.90;;
67352;SDS011;54238;52.278;21.056;2024-01-06T08:34:21;15.50;;;8.80;;
67352;SDS011;54238;52.278;21.056;2024-01-06T08:36:53;18.20;;;9.90;;
67352;SDS011;54238;52.278;21.056;2024-01-06T08:39:25;17.80;;;11.00;;
67352;SDS011;54238;52.278;21.056;2024-01-06T08:41:53;16.90;;;9.00;;
67352;SDS011;54238;52.278;21.056;2024-01-06T08:44:23;18.80;;;9.90;;
67352;SDS011;54238;52.278;21.056;2024-01-06T08:46:52;15.10;;;9.10;;
67352;SDS011;54238;52.278;21.056;2024-01-06T08:49:19;14.40;;;9.20;;
67352;SDS011;54238;52.278;21.056;2024-01-06T08:51:51;16.40;;;10.20;;
67352;SDS011;54238;52.278;21.056;2024-01-06T08:54:23;14.60;;;9.20;;
67352;SDS011;54238;52.278;21.056;2024-01-06T08:56:52;18.50;;;9.50;;
67352;SDS011;54238;52.278;21.056;2024-01-06T08:59:22;19.30;;;10.30;;
67352;SDS011;54238;52.278;21.056;2024-01-06T09:01:51;15.60;;;8.70;;
67352;SDS011;54238;52.278;21.056;2024-01-06T09:04:19;13.50;;;7.40;;
67352;SDS011;54238;52.278;21.056;2024-01-06T09:06:51;16.30;;;8.10;;
67352;SDS011;54238;52.278;21.056;2024-01-06T09:09:23;15.60;;;8.60;;
67352;SDS011;54238;52.278;21.056;2024-01-06T09:11:53;14.30;;;8.60;;
67352;SDS011;54238;52.278;21.056;2024-01-06T09:14:25;14.10;;;9.10;;
67352;SDS011;54238;52.278;21.056;2024-01-06T09:16:55;19.30;;;8.50;;
67352;SDS011;54238;52.278;21.056;2024-01-06T09:19:25;15.30;;;9.90;;
67352;SDS011;54238;52.278;21.056;2024-01-06T09:21:55;13.80;;;8.90;;
67352;SDS011;54238;52.278;21.056;2024-01-06T09:24:22;15.10;;;7.50;;
67352;SDS011;54238;52.278;21.056;2024-01-06T09:26:54;18.20;;;9.40;;
67352;SDS011;54238;52.278;21.056;2024-01-06T09:29:22;16.10;;;9.30;;
67352;SDS011;54238;52.278;21.056;2024-01-06T09:31:51;20.00;;;9.50;;
67352;SDS011;54238;52.278;21.056;2024-01-06T09:34:21;18.20;;;9.80;;
67352;SDS011;54238;52.278;21.056;2024-01-06T09:36:50;12.90;;;7.60;;
67352;SDS011;54238;52.278;21.056;2024-01-06T09:39:20;12.30;;;7.70;;
67352;SDS011;54238;52.278;21.056;2024-01-06T09:41:50;14.50;;;8.10;;
67352;SDS011;54238;52.278;21.056;2024-01-06T09:44:19;14.00;;;8.00;;
67352;SDS011;54238;52.278;21.056;2024-01-06T09:46:50;13.10;;;7.50;;
67352;SDS011;54238;52.278;21.056;2024-01-06T09:49:24;15.30;;;8.90;;
67352;SDS011;54238;52.278;21.056;2024-01-06T09:51:58;20.00;;;9.30;;
67352;SDS011;54238;52.278;21.056;2024-01-06T09:54:30;14.20;;;8.40;;
67352;SDS011;54238;52.278;21.056;2024-01-06T09:57:06;10.30;;;7.10;;
67352;SDS011;54238;52.278;21.056;2024-01-06T09:59:38;13.20;;;6.50;;
67352;SDS011;54238;52.278;21.056;2024-01-06T10:02:10;13.20;;;7.50;;
67352;SDS011;54238;52.278;21.056;2024-01-06T10:04:46;14.30;;;8.10;;
67352;SDS011;54238;52.278;21.056;2024-01-06T10:07:13;14.20;;;8.60;;
67352;SDS011;54238;52.278;21.056;2024-01-06T10:09:41;12.80;;;6.80;;
67352;SDS011;54238;52.278;21.056;2024-01-06T10:12:11;12.90;;;6.80;;
67352;SDS011;54238;52.278;21.056;2024-01-06T10:14:40;13.80;;;8.10;;
67352;SDS011;54238;52.278;21.056;2024-01-06T10:17:10;15.60;;;8.20;;
67352;SDS011;54238;52.278;21.056;2024-01-06T10:19:37;13.30;;;7.00;;
67352;SDS011;54238;52.278;21.056;2024-01-06T10:22:05;13.70;;;7.70;;
67352;SDS011;54238;52.278;21.056;2024-01-06T10:24:37;12.50;;;7.50;;
67352;SDS011;54238;52.278;21.056;2024-01-06T10:27:07;13.90;;;6.90;;
67352;SDS011;54238;52.278;21.056;2024-01-06T10:29:38;13.30;;;7.70;;
67352;SDS011;54238;52.278;21.056;2024-01-06T10:32:10;12.90;;;6.30;;
67352;SDS011;54238;52.278;21.056;2024-01-06T10:34:38;17.70;;;9.00;;
67352;SDS011;54238;52.278;21.056;2024-01-06T10:37:11;12.30;;;7.10;;
67352;SDS011;54238;52.278;21.056;2024-01-06T10:39:43;15.30;;;7.50;;
67352;SDS011;54238;52.278;21.056;2024-01-06T10:42:13;13.20;;;6.40;;
67352;SDS011;54238;52.278;21.056;2024-01-06T10:44:46;15.60;;;8.00;;
67352;SDS011;54238;52.278;21.056;2024-01-06T10:47:19;13.80;;;8.50;;
67352;SDS011;54238;52.278;21.056;2024-01-06T10:49:51;18.20;;;9.90;;
67352;SDS011;54238;52.278;21.056;2024-01-06T10:52:31;16.20;;;8.40;;
67352;SDS011;54238;52.278;21.056;2024-01-06T10:54:59;14.70;;;7.90;;
67352;SDS011;54238;52.278;21.056;2024-01-06T10:57:34;16.40;;;6.90;;
67352;SDS011;54238;52.278;21.056;2024-01-06T11:00:10;12.70;;;7.70;;
67352;SDS011;54238;52.278;21.056;2024-01-06T11:02:48;18.30;;;9.80;;
67352;SDS011;54238;52.278;21.056;2024-01-06T11:05:19;16.90;;;8.20;;
67352;SDS011;54238;52.278;21.056;2024-01-06T11:07:48;17.00;;;11.10;;
67352;SDS011;54238;52.278;21.056;2024-01-06T11:10:21;21.20;;;10.00;;
67352;SDS011;54238;52.278;21.056;2024-01-06T11:13:07;11.10;;;5.70;;
67352;SDS011;54238;52.278;21.056;2024-01-06T11:15:39;15.00;;;9.00;;
67352;SDS011;54238;52.278;21.056;2024-01-06T11:21:22;16.70;;;9.50;;
67352;SDS011;54238;52.278;21.056;2024-01-06T11:24:24;16.10;;;8.70;;
67352;SDS011;54238;52.278;21.056;2024-01-06T11:26:56;18.10;;;8.80;;
67352;SDS011;54238;52.278;21.056;2024-01-06T11:29:26;14.20;;;7.60;;
67352;SDS011;54238;52.278;21.056;2024-01-06T11:32:17;18.20;;;10.00;;
67352;SDS011;54238;52.278;21.056;2024-01-06T11:34:51;13.70;;;7.10;;
67352;SDS011;54238;52.278;21.056;2024-01-06T11:40:25;11.60;;;6.70;;
67352;SDS011;54238;52.278;21.056;2024-01-06T11:45:33;10.50;;;6.50;;
67352;SDS011;54238;52.278;21.056;2024-01-06T11:48:09;12.20;;;6.00;;
67352;SDS011;54238;52.278;21.056;2024-01-06T11:50:42;10.10;;;6.10;;
67352;SDS011;54238;52.278;21.056;2024-01-06T11:53:11;13.30;;;7.40;;
67352;SDS011;54238;52.278;21.056;2024-01-06T11:55:41;12.70;;;6.60;;
67352;SDS011;54238;52.278;21.056;2024-01-06T11:58:15;11.30;;;6.90;;
67352;SDS011;54238;52.278;21.056;2024-01-06T12:00:55;12.50;;;7.70;;
67352;SDS011;54238;52.278;21.056;2024-01-06T12:03:30;11.50;;;6.20;;
67352;SDS011;54238;52.278;21.056;2024-01-06T12:06:02;16.20;;;7.90;;
67352;SDS011;54238;52.278;21.056;2024-01-06T12:08:32;9.90;;;6.50;;
67352;SDS011;54238;52.278;21.056;2024-01-06T12:11:08;11.00;;;6.60;;
67352;SDS011;54238;52.278;21.056;2024-01-06T12:13:39;8.60;;;5.60;;
67352;SDS011;54238;52.278;21.056;2024-01-06T12:16:14;12.80;;;6.50;;
67352;SDS011;54238;52.278;21.056;2024-01-06T12:18:51;8.60;;;5.40;;
67352;SDS011;54238;52.278;21.056;2024-01-06T12:21:23;9.60;;;6.00;;
67352;SDS011;54238;52.278;21.056;2024-01-06T12:24:12;11.30;;;5.90;;
67352;SDS011;54238;52.278;21.056;2024-01-06T12:27:14;9.60;;;6.10;;
67352;SDS011;54238;52.278;21.056;2024-01-06T12:29:45;13.90;;;7.30;;
67352;SDS011;54238;52.278;21.056;2024-01-06T12:32:14;18.30;;;6.10;;
67352;SDS011;54238;52.278;21.056;2024-01-06T12:34:42;10.50;;;5.90;;
67352;SDS011;54238;52.278;21.056;2024-01-06T12:37:13;10.10;;;6.20;;
67352;SDS011;54238;52.278;21.056;2024-01-06T12:39:41;11.00;;;6.30;;
67352;SDS011;54238;52.278;21.056;2024-01-06T12:42:15;10.00;;;6.10;;
67352;SDS011;54238;52.278;21.056;2024-01-06T12:44:44;11.30;;;6.30;;
67352;SDS011;54238;52.278;21.056;2024-01-06T12:47:12;14.10;;;6.00;;
67352;SDS011;54238;52.278;21.056;2024-01-06T12:49:50;9.90;;;5.70;;
67352;SDS011;54238;52.278;21.056;2024-01-06T12:52:20;14.20;;;6.40;;
67352;SDS011;54238;52.278;21.056;2024-01-06T12:54:52;12.70;;;6.80;;
67352;SDS011;54238;52.278;21.056;2024-01-06T12:57:21;12.80;;;7.40;;
67352;SDS011;54238;52.278;21.056;2024-01-06T12:59:52;13.10;;;8.30;;
67352;SDS011;54238;52.278;21.056;2024-01-06T13:02:23;17.40;;;8.30;;
67352;SDS011;54238;52.278;21.056;2024-01-06T13:04:53;15.00;;;7.70;;
67352;SDS011;54238;52.278;21.056;2024-01-06T13:07:32;18.90;;;9.30;;
67352;SDS011;54238;52.278;21.056;2024-01-06T13:10:04;18.10;;;8.00;;
67352;SDS011;54238;52.278;21.056;2024-01-06T13:12:35;17.60;;;7.20;;
67352;SDS011;54238;52.278;21.056;2024-01-06T13:15:11;12.60;;;6.80;;
67352;SDS011;54238;52.278;21.056;2024-01-06T13:17:41;14.40;;;6.20;;
67352;SDS011;54238;52.278;21.056;2024-01-06T13:20:13;13.40;;;6.50;;
67352;SDS011;54238;52.278;21.056;2024-01-06T13:22:44;13.40;;;6.90;;
67352;SDS011;54238;52.278;21.056;2024-01-06T13:25:17;12.80;;;5.10;;
67352;SDS011;54238;52.278;21.056;2024-01-06T13:27:47;11.40;;;5.70;;
67352;SDS011;54238;52.278;21.056;2024-01-06T13:30:15;12.30;;;6.20;;
67352;SDS011;54238;52.278;21.056;2024-01-06T13:32:52;14.50;;;6.50;;
67352;SDS011;54238;52.278;21.056;2024-01-06T13:35:22;11.90;;;5.30;;
67352;SDS011;54238;52.278;21.056;2024-01-06T13:37:54;15.70;;;5.60;;
67352;SDS011;54238;52.278;21.056;2024-01-06T13:40:30;10.40;;;5.70;;
67352;SDS011;54238;52.278;21.056;2024-01-06T13:43:00;11.40;;;5.40;;
67352;SDS011;54238;52.278;21.056;2024-01-06T13:45:35;9.90;;;5.00;;
67352;SDS011;54238;52.278;21.056;2024-01-06T13:48:10;10.80;;;5.70;;
67352;SDS011;54238;52.278;21.056;2024-01-06T13:50:42;14.10;;;6.10;;
67352;SDS011;54238;52.278;21.056;2024-01-06T13:53:17;11.90;;;5.20;;
67352;SDS011;54238;52.278;21.056;2024-01-06T13:55:59;11.40;;;6.30;;
67352;SDS011;54238;52.278;21.056;2024-01-06T13:58:36;11.60;;;5.20;;
67352;SDS011;54238;52.278;21.056;2024-01-06T14:01:06;12.00;;;5.90;;
67352;SDS011;54238;52.278;21.056;2024-01-06T14:03:39;13.10;;;5.10;;
67352;SDS011;54238;52.278;21.056;2024-01-06T14:06:09;11.60;;;4.90;;
67352;SDS011;54238;52.278;21.056;2024-01-06T14:08:41;11.50;;;5.40;;
67352;SDS011;54238;52.278;21.056;2024-01-06T14:11:16;12.20;;;5.90;;
67352;SDS011;54238;52.278;21.056;2024-01-06T14:13:44;14.60;;;5.40;;
67352;SDS011;54238;52.278;21.056;2024-01-06T14:16:16;9.70;;;5.70;;
67352;SDS011;54238;52.278;21.056;2024-01-06T14:18:51;11.20;;;6.30;;
67352;SDS011;54238;52.278;21.056;2024-01-06T14:21:23;13.20;;;6.00;;
67352;SDS011;54238;52.278;21.056;2024-01-06T14:23:54;11.50;;;5.70;;
67352;SDS011;54238;52.278;21.056;2024-01-06T14:26:22;14.90;;;7.00;;
67352;SDS011;54238;52.278;21.056;2024-01-06T14:28:52;8.30;;;4.50;;
67352;SDS011;54238;52.278;21.056;2024-01-06T14:31:23;13.80;;;7.00;;
67352;SDS011;54238;52.278;21.056;2024-01-06T14:33:55;15.80;;;6.70;;
67352;SDS011;54238;52.278;21.056;2024-01-06T14:36:25;11.20;;;5.80;;
67352;SDS011;54238;52.278;21.056;2024-01-06T14:39:01;13.30;;;6.40;;
67352;SDS011;54238;52.278;21.056;2024-01-06T14:41:32;13.00;;;6.30;;
67352;SDS011;54238;52.278;21.056;2024-01-06T14:44:02;10.20;;;4.30;;
67352;SDS011;54238;52.278;21.056;2024-01-06T14:46:30;13.80;;;6.60;;
67352;SDS011;54238;52.278;21.056;2024-01-06T14:49:02;9.90;;;5.00;;
67352;SDS011;54238;52.278;21.056;2024-01-06T14:51:34;10.80;;;4.90;;
67352;SDS011;54238;52.278;21.056;2024-01-06T14:54:05;11.60;;;4.00;;
67352;SDS011;54238;52.278;21.056;2024-01-06T14:56:41;8.20;;;4.70;;
67352;SDS011;54238;52.278;21.056;2024-01-06T14:59:09;8.90;;;4.80;;